sensor_id;sensor_type;location;lat;lon;timestamp;temperature;humidity
25192;DHT22;13143;50.924;5.320;2023-05-23T00:01:40;17.90;99.90
25192;DHT22;13143;50.924;5.320;2023-05-23T00:04:08;17.80;99.90
25192;DHT22;13143;50.924;5.320;2023-05-23T00:06:34;17.80;99.90
25192;DHT22;13143;50.924;5.320;2023-05-23T00:09:03;17.80;99.90
25192;DHT22;13143;50.924;5.320;2023-05-23T00:11:29;17.80;99.90
25192;DHT22;13143;50.924;5.320;2023-05-23T00:13:56;17.80;99.90
25192;DHT22;13143;50.924;5.320;2023-05-23T00:16:25;17.80;99.90
25192;DHT22;13143;50.924;5.320;2023-05-23T00:18:52;17.70;99.90
25192;DHT22;13143;50.924;5.320;2023-05-23T00:21:18;17.70;99.90
25192;DHT22;13143;50.924;5.320;2023-05-23T00:23:45;17.70;99.90
25192;DHT22;13143;50.924;5.320;2023-05-23T00:26:11;17.70;99.90
25192;DHT22;13143;50.924;5.320;2023-05-23T00:28:37;17.60;99.90
25192;DHT22;13143;50.924;5.320;2023-05-23T00:31:03;17.60;99.90
25192;DHT22;13143;50.924;5.320;2023-05-23T00:33:30;17.60;99.90
25192;DHT22;13143;50.924;5.320;2023-05-23T00:36:00;17.60;99.90
25192;DHT22;13143;50.924;5.320;2023-05-23T00:38:26;17.60;99.90
25192;DHT22;13143;50.924;5.320;2023-05-23T00:40:53;17.60;99.90
25192;DHT22;13143;50.924;5.320;2023-05-23T00:43:19;17.60;99.90
25192;DHT22;13143;50.924;5.320;2023-05-23T00:45:47;17.60;99.90
25192;DHT22;13143;50.924;5.320;2023-05-23T00:48:14;17.50;99.90
25192;DHT22;13143;50.924;5.320;2023-05-23T00:50:41;17.50;99.90
25192;DHT22;13143;50.924;5.320;2023-05-23T00:53:08;17.50;99.90
25192;DHT22;13143;50.924;5.320;2023-05-23T00:55:34;17.50;99.90
25192;DHT22;13143;50.924;5.320;2023-05-23T00:58:00;17.50;99.90
25192;DHT22;13143;50.924;5.320;2023-05-23T01:00:27;17.50;99.90
25192;DHT22;13143;50.924;5.320;2023-05-23T01:02:53;17.40;99.90
25192;DHT22;13143;50.924;5.320;2023-05-23T01:05:20;17.40;99.90
25192;DHT22;13143;50.924;5.320;2023-05-23T01:07:51;17.40;99.90
25192;DHT22;13143;50.924;5.320;2023-05-23T01:10:23;17.40;99.90
25192;DHT22;13143;50.924;5.320;2023-05-23T01:15:22;17.40;99.90
25192;DHT22;13143;50.924;5.320;2023-05-23T01:20:22;17.30;99.90
25192;DHT22;13143;50.924;5.320;2023-05-23T01:28:32;17.30;99.90
25192;DHT22;13143;50.924;5.320;2023-05-23T01:31:03;17.30;99.90
25192;DHT22;13143;50.924;5.320;2023-05-23T01:33:32;17.20;99.90
25192;DHT22;13143;50.924;5.320;2023-05-23T01:36:01;17.20;99.90
25192;DHT22;13143;50.924;5.320;2023-05-23T01:38:28;17.20;99.90
25192;DHT22;13143;50.924;5.320;2023-05-23T01:40:54;17.20;99.90
25192;DHT22;13143;50.924;5.320;2023-05-23T01:43:21;17.20;99.90
25192;DHT22;13143;50.924;5.320;2023-05-23T01:45:48;17.20;99.90
25192;DHT22;13143;50.924;5.320;2023-05-23T01:48:16;17.20;99.90
25192;DHT22;13143;50.924;5.320;2023-05-23T01:50:43;17.10;99.90
25192;DHT22;13143;50.924;5.320;2023-05-23T01:53:15;17.10;99.90
25192;DHT22;13143;50.924;5.320;2023-05-23T01:55:42;17.10;99.90
25192;DHT22;13143;50.924;5.320;2023-05-23T01:58:10;17.10;99.90
25192;DHT22;13143;50.924;5.320;2023-05-23T02:00:36;17.10;99.90
25192;DHT22;13143;50.924;5.320;2023-05-23T02:03:02;17.10;99.90
25192;DHT22;13143;50.924;5.320;2023-05-23T02:05:29;17.10;99.90
25192;DHT22;13143;50.924;5.320;2023-05-23T02:07:55;17.00;99.90
25192;DHT22;13143;50.924;5.320;2023-05-23T02:10:22;17.00;99.90
25192;DHT22;13143;50.924;5.320;2023-05-23T02:12:48;17.00;99.90
25192;DHT22;13143;50.924;5.320;2023-05-23T02:15:14;17.00;99.90
25192;DHT22;13143;50.924;5.320;2023-05-23T02:17:42;17.00;99.90
25192;DHT22;13143;50.924;5.320;2023-05-23T02:20:08;17.00;99.90
25192;DHT22;13143;50.924;5.320;2023-05-23T02:22:35;16.90;99.90
25192;DHT22;13143;50.924;5.320;2023-05-23T02:25:01;16.90;99.90
25192;DHT22;13143;50.924;5.320;2023-05-23T02:27:27;16.90;99.90
25192;DHT22;13143;50.924;5.320;2023-05-23T02:29:54;16.90;99.90
25192;DHT22;13143;50.924;5.320;2023-05-23T02:32:20;16.90;99.90
25192;DHT22;13143;50.924;5.320;2023-05-23T02:34:46;16.90;99.90
25192;DHT22;13143;50.924;5.320;2023-05-23T02:37:15;16.90;99.90
25192;DHT22;13143;50.924;5.320;2023-05-23T02:39:42;16.80;99.90
25192;DHT22;13143;50.924;5.320;2023-05-23T02:42:09;16.80;99.90
25192;DHT22;13143;50.924;5.320;2023-05-23T02:44:35;16.80;99.90
25192;DHT22;13143;50.924;5.320;2023-05-23T02:47:01;16.80;99.90
25192;DHT22;13143;50.924;5.320;2023-05-23T02:49:27;16.70;99.90
25192;DHT22;13143;50.924;5.320;2023-05-23T02:51:53;16.70;99.90
25192;DHT22;13143;50.924;5.320;2023-05-23T02:54:20;16.70;99.90
25192;DHT22;13143;50.924;5.320;2023-05-23T02:56:46;16.70;99.90
25192;DHT22;13143;50.924;5.320;2023-05-23T02:59:12;16.70;99.90
25192;DHT22;13143;50.924;5.320;2023-05-23T03:01:38;16.60;99.90
25192;DHT22;13143;50.924;5.320;2023-05-23T03:04:05;16.60;99.90
25192;DHT22;13143;50.924;5.320;2023-05-23T03:06:31;16.60;99.90
25192;DHT22;13143;50.924;5.320;2023-05-23T03:08:59;16.60;99.90
25192;DHT22;13143;50.924;5.320;2023-05-23T03:11:25;16.60;99.90
25192;DHT22;13143;50.924;5.320;2023-05-23T03:13:53;16.50;99.90
25192;DHT22;13143;50.924;5.320;2023-05-23T03:16:20;16.50;99.90
25192;DHT22;13143;50.924;5.320;2023-05-23T03:18:46;16.50;99.90
25192;DHT22;13143;50.924;5.320;2023-05-23T03:21:12;16.50;99.90
25192;DHT22;13143;50.924;5.320;2023-05-23T03:23:39;16.50;99.90
25192;DHT22;13143;50.924;5.320;2023-05-23T03:26:05;16.40;99.90
25192;DHT22;13143;50.924;5.320;2023-05-23T03:28:31;16.40;99.90
25192;DHT22;13143;50.924;5.320;2023-05-23T03:30:58;16.40;99.90
25192;DHT22;13143;50.924;5.320;2023-05-23T03:33:24;16.40;99.90
25192;DHT22;13143;50.924;5.320;2023-05-23T03:35:50;16.30;99.90
25192;DHT22;13143;50.924;5.320;2023-05-23T03:38:17;16.30;99.90
25192;DHT22;13143;50.924;5.320;2023-05-23T03:40:44;16.30;99.90
25192;DHT22;13143;50.924;5.320;2023-05-23T03:43:10;16.30;99.90
25192;DHT22;13143;50.924;5.320;2023-05-23T03:45:37;16.30;99.90
25192;DHT22;13143;50.924;5.320;2023-05-23T03:48:03;16.30;99.90
25192;DHT22;13143;50.924;5.320;2023-05-23T03:50:29;16.30;99.90
25192;DHT22;13143;50.924;5.320;2023-05-23T03:52:56;16.30;99.90
25192;DHT22;13143;50.924;5.320;2023-05-23T03:55:23;16.30;99.90
25192;DHT22;13143;50.924;5.320;2023-05-23T03:57:50;16.30;99.90
25192;DHT22;13143;50.924;5.320;2023-05-23T04:00:17;16.20;99.90
25192;DHT22;13143;50.924;5.320;2023-05-23T04:02:44;16.20;99.90
25192;DHT22;13143;50.924;5.320;2023-05-23T04:05:15;16.20;99.90
25192;DHT22;13143;50.924;5.320;2023-05-23T04:07:41;16.20;99.90
25192;DHT22;13143;50.924;5.320;2023-05-23T04:10:08;16.20;99.90
25192;DHT22;13143;50.924;5.320;2023-05-23T04:12:35;16.20;99.90
25192;DHT22;13143;50.924;5.320;2023-05-23T04:15:02;16.20;99.90
25192;DHT22;13143;50.924;5.320;2023-05-23T04:17:28;16.20;99.90
25192;DHT22;13143;50.924;5.320;2023-05-23T04:19:57;16.20;99.90
25192;DHT22;13143;50.924;5.320;2023-05-23T04:22:23;16.10;99.90
25192;DHT22;13143;50.924;5.320;2023-05-23T04:24:49;16.10;99.90
25192;DHT22;13143;50.924;5.320;2023-05-23T04:27:15;16.10;99.90
25192;DHT22;13143;50.924;5.320;2023-05-23T04:29:41;16.10;99.90
25192;DHT22;13143;50.924;5.320;2023-05-23T04:32:09;16.10;99.90
25192;DHT22;13143;50.924;5.320;2023-05-23T04:34:36;16.10;99.90
25192;DHT22;13143;50.924;5.320;2023-05-23T04:37:02;16.10;99.90
25192;DHT22;13143;50.924;5.320;2023-05-23T04:39:29;16.10;99.90
25192;DHT22;13143;50.924;5.320;2023-05-23T04:41:55;16.10;99.90
25192;DHT22;13143;50.924;5.320;2023-05-23T04:44:22;16.10;99.90
25192;DHT22;13143;50.924;5.320;2023-05-23T04:46:49;16.10;99.90
25192;DHT22;13143;50.924;5.320;2023-05-23T04:49:15;16.00;99.90
25192;DHT22;13143;50.924;5.320;2023-05-23T04:51:42;16.00;99.90
25192;DHT22;13143;50.924;5.320;2023-05-23T04:54:08;16.00;99.90
25192;DHT22;13143;50.924;5.320;2023-05-23T04:56:34;16.00;99.90
25192;DHT22;13143;50.924;5.320;2023-05-23T04:59:00;16.00;99.90
25192;DHT22;13143;50.924;5.320;2023-05-23T05:01:27;16.00;99.90
25192;DHT22;13143;50.924;5.320;2023-05-23T05:03:53;16.00;99.90
25192;DHT22;13143;50.924;5.320;2023-05-23T05:06:19;16.00;99.90
25192;DHT22;13143;50.924;5.320;2023-05-23T05:08:46;16.00;99.90
25192;DHT22;13143;50.924;5.320;2023-05-23T05:11:12;16.00;99.90
25192;DHT22;13143;50.924;5.320;2023-05-23T05:13:38;16.00;99.90
25192;DHT22;13143;50.924;5.320;2023-05-23T05:16:05;16.00;99.90
25192;DHT22;13143;50.924;5.320;2023-05-23T05:18:31;16.00;99.90
25192;DHT22;13143;50.924;5.320;2023-05-23T05:20:57;16.00;99.90
25192;DHT22;13143;50.924;5.320;2023-05-23T05:23:25;16.00;99.90
25192;DHT22;13143;50.924;5.320;2023-05-23T05:25:53;16.00;99.90
25192;DHT22;13143;50.924;5.320;2023-05-23T05:28:21;16.00;99.90
25192;DHT22;13143;50.924;5.320;2023-05-23T05:30:48;16.00;99.90
25192;DHT22;13143;50.924;5.320;2023-05-23T05:33:19;16.00;99.90
25192;DHT22;13143;50.924;5.320;2023-05-23T05:35:49;16.00;99.90
25192;DHT22;13143;50.924;5.320;2023-05-23T05:38:16;16.00;99.90
25192;DHT22;13143;50.924;5.320;2023-05-23T05:40:42;16.00;99.90
25192;DHT22;13143;50.924;5.320;2023-05-23T05:43:08;16.00;99.90
25192;DHT22;13143;50.924;5.320;2023-05-23T05:45:35;16.00;99.90
25192;DHT22;13143;50.924;5.320;2023-05-23T05:48:02;16.00;99.90
25192;DHT22;13143;50.924;5.320;2023-05-23T05:50:28;16.00;99.90
25192;DHT22;13143;50.924;5.320;2023-05-23T05:52:54;16.00;99.90
25192;DHT22;13143;50.924;5.320;2023-05-23T05:55:20;16.00;99.90
25192;DHT22;13143;50.924;5.320;2023-05-23T05:57:46;16.00;99.90
25192;DHT22;13143;50.924;5.320;2023-05-23T06:00:13;16.00;99.90
25192;DHT22;13143;50.924;5.320;2023-05-23T06:02:41;16.00;99.90
25192;DHT22;13143;50.924;5.320;2023-05-23T06:05:11;16.00;99.90
25192;DHT22;13143;50.924;5.320;2023-05-23T06:07:38;16.00;99.90
25192;DHT22;13143;50.924;5.320;2023-05-23T06:10:05;16.00;99.90
25192;DHT22;13143;50.924;5.320;2023-05-23T06:12:32;16.00;99.90
25192;DHT22;13143;50.924;5.320;2023-05-23T06:14:58;16.00;99.90
25192;DHT22;13143;50.924;5.320;2023-05-23T06:17:25;15.90;99.90
25192;DHT22;13143;50.924;5.320;2023-05-23T06:19:51;16.00;99.90
25192;DHT22;13143;50.924;5.320;2023-05-23T06:22:17;16.00;99.90
25192;DHT22;13143;50.924;5.320;2023-05-23T06:24:43;16.00;99.90
25192;DHT22;13143;50.924;5.320;2023-05-23T06:27:09;16.00;99.90
25192;DHT22;13143;50.924;5.320;2023-05-23T06:29:35;16.00;99.90
25192;DHT22;13143;50.924;5.320;2023-05-23T06:32:01;16.00;99.90
25192;DHT22;13143;50.924;5.320;2023-05-23T06:34:28;16.00;99.90
25192;DHT22;13143;50.924;5.320;2023-05-23T06:36:54;16.00;99.90
25192;DHT22;13143;50.924;5.320;2023-05-23T06:39:20;16.00;99.90
25192;DHT22;13143;50.924;5.320;2023-05-23T06:41:47;16.00;99.90
25192;DHT22;13143;50.924;5.320;2023-05-23T06:44:13;16.00;99.90
25192;DHT22;13143;50.924;5.320;2023-05-23T06:46:42;16.00;99.90
25192;DHT22;13143;50.924;5.320;2023-05-23T06:49:10;16.00;99.90
25192;DHT22;13143;50.924;5.320;2023-05-23T06:51:36;16.00;99.90
25192;DHT22;13143;50.924;5.320;2023-05-23T06:54:02;16.00;99.90
25192;DHT22;13143;50.924;5.320;2023-05-23T06:56:28;16.00;99.90
25192;DHT22;13143;50.924;5.320;2023-05-23T06:58:54;16.00;99.90
25192;DHT22;13143;50.924;5.320;2023-05-23T07:01:20;15.90;99.90
25192;DHT22;13143;50.924;5.320;2023-05-23T07:03:46;15.90;99.90
25192;DHT22;13143;50.924;5.320;2023-05-23T07:06:12;15.90;99.90
25192;DHT22;13143;50.924;5.320;2023-05-23T07:08:39;15.80;99.90
25192;DHT22;13143;50.924;5.320;2023-05-23T07:11:05;15.80;99.90
25192;DHT22;13143;50.924;5.320;2023-05-23T07:13:32;15.80;99.90
25192;DHT22;13143;50.924;5.320;2023-05-23T07:15:58;15.80;99.90
25192;DHT22;13143;50.924;5.320;2023-05-23T07:18:24;15.80;99.90
25192;DHT22;13143;50.924;5.320;2023-05-23T07:20:50;15.80;99.90
25192;DHT22;13143;50.924;5.320;2023-05-23T07:23:16;15.80;99.90
25192;DHT22;13143;50.924;5.320;2023-05-23T07:25:42;15.80;99.90
25192;DHT22;13143;50.924;5.320;2023-05-23T07:28:09;15.80;99.90
25192;DHT22;13143;50.924;5.320;2023-05-23T07:30:35;15.80;99.90
25192;DHT22;13143;50.924;5.320;2023-05-23T07:33:01;15.80;99.90
25192;DHT22;13143;50.924;5.320;2023-05-23T07:35:27;15.80;99.90
25192;DHT22;13143;50.924;5.320;2023-05-23T07:37:54;15.70;99.90
25192;DHT22;13143;50.924;5.320;2023-05-23T07:40:21;15.70;99.90
25192;DHT22;13143;50.924;5.320;2023-05-23T07:42:47;15.60;99.90
25192;DHT22;13143;50.924;5.320;2023-05-23T07:45:13;15.60;99.90
25192;DHT22;13143;50.924;5.320;2023-05-23T07:47:40;15.60;99.90
25192;DHT22;13143;50.924;5.320;2023-05-23T07:50:07;15.50;99.90
25192;DHT22;13143;50.924;5.320;2023-05-23T07:52:34;15.50;99.90
25192;DHT22;13143;50.924;5.320;2023-05-23T07:55:01;15.50;99.90
25192;DHT22;13143;50.924;5.320;2023-05-23T07:57:27;15.50;99.90
25192;DHT22;13143;50.924;5.320;2023-05-23T07:59:53;15.50;99.90
25192;DHT22;13143;50.924;5.320;2023-05-23T08:02:19;15.40;99.90
25192;DHT22;13143;50.924;5.320;2023-05-23T08:04:46;15.50;99.90
25192;DHT22;13143;50.924;5.320;2023-05-23T08:07:13;15.50;99.90
25192;DHT22;13143;50.924;5.320;2023-05-23T08:09:39;15.40;99.90
25192;DHT22;13143;50.924;5.320;2023-05-23T08:12:06;15.40;99.90
25192;DHT22;13143;50.924;5.320;2023-05-23T08:14:33;15.40;99.90
25192;DHT22;13143;50.924;5.320;2023-05-23T08:16:59;15.40;99.90
25192;DHT22;13143;50.924;5.320;2023-05-23T08:19:25;15.40;99.90
25192;DHT22;13143;50.924;5.320;2023-05-23T08:21:51;15.40;99.90
25192;DHT22;13143;50.924;5.320;2023-05-23T08:24:18;15.40;99.90
25192;DHT22;13143;50.924;5.320;2023-05-23T08:26:45;15.40;99.90
25192;DHT22;13143;50.924;5.320;2023-05-23T08:29:12;15.40;99.90
25192;DHT22;13143;50.924;5.320;2023-05-23T08:31:38;15.40;99.90
25192;DHT22;13143;50.924;5.320;2023-05-23T08:34:05;15.30;99.90
25192;DHT22;13143;50.924;5.320;2023-05-23T08:36:31;15.30;99.90
25192;DHT22;13143;50.924;5.320;2023-05-23T08:38:59;15.30;99.90
25192;DHT22;13143;50.924;5.320;2023-05-23T08:41:25;15.30;99.90
25192;DHT22;13143;50.924;5.320;2023-05-23T08:43:54;15.20;99.90
25192;DHT22;13143;50.924;5.320;2023-05-23T08:46:22;15.20;99.90
25192;DHT22;13143;50.924;5.320;2023-05-23T08:48:53;15.30;99.90
25192;DHT22;13143;50.924;5.320;2023-05-23T08:51:21;15.20;99.90
25192;DHT22;13143;50.924;5.320;2023-05-23T08:53:48;15.20;99.90
25192;DHT22;13143;50.924;5.320;2023-05-23T08:56:15;15.20;99.90
25192;DHT22;13143;50.924;5.320;2023-05-23T08:58:42;15.20;99.90
25192;DHT22;13143;50.924;5.320;2023-05-23T09:01:09;15.20;99.90
25192;DHT22;13143;50.924;5.320;2023-05-23T09:03:36;15.10;99.90
25192;DHT22;13143;50.924;5.320;2023-05-23T09:06:05;15.10;99.90
25192;DHT22;13143;50.924;5.320;2023-05-23T09:08:32;15.10;99.90
25192;DHT22;13143;50.924;5.320;2023-05-23T09:10:59;15.10;99.90
25192;DHT22;13143;50.924;5.320;2023-05-23T09:13:29;15.10;99.90
25192;DHT22;13143;50.924;5.320;2023-05-23T09:16:02;15.10;99.90
25192;DHT22;13143;50.924;5.320;2023-05-23T09:18:39;15.10;99.90
25192;DHT22;13143;50.924;5.320;2023-05-23T09:21:10;15.10;99.90
25192;DHT22;13143;50.924;5.320;2023-05-23T09:23:37;15.10;99.90
25192;DHT22;13143;50.924;5.320;2023-05-23T09:26:09;15.10;99.90
25192;DHT22;13143;50.924;5.320;2023-05-23T09:28:37;15.10;99.90
25192;DHT22;13143;50.924;5.320;2023-05-23T09:31:05;15.20;99.90
25192;DHT22;13143;50.924;5.320;2023-05-23T09:33:37;15.20;99.90
25192;DHT22;13143;50.924;5.320;2023-05-23T09:36:05;15.20;99.90
25192;DHT22;13143;50.924;5.320;2023-05-23T09:38:33;15.20;99.90
25192;DHT22;13143;50.924;5.320;2023-05-23T09:41:03;15.20;99.90
25192;DHT22;13143;50.924;5.320;2023-05-23T09:43:29;15.30;99.90
25192;DHT22;13143;50.924;5.320;2023-05-23T09:46:06;15.30;99.90
25192;DHT22;13143;50.924;5.320;2023-05-23T09:48:33;15.20;99.90
25192;DHT22;13143;50.924;5.320;2023-05-23T09:51:20;15.30;99.90
25192;DHT22;13143;50.924;5.320;2023-05-23T09:53:46;15.30;99.90
25192;DHT22;13143;50.924;5.320;2023-05-23T09:56:14;15.20;99.90
25192;DHT22;13143;50.924;5.320;2023-05-23T09:58:45;15.30;99.90
25192;DHT22;13143;50.924;5.320;2023-05-23T10:01:12;15.30;99.90
25192;DHT22;13143;50.924;5.320;2023-05-23T10:03:49;15.30;99.90
25192;DHT22;13143;50.924;5.320;2023-05-23T10:09:04;15.30;99.90
25192;DHT22;13143;50.924;5.320;2023-05-23T10:14:09;15.30;99.90
25192;DHT22;13143;50.924;5.320;2023-05-23T10:16:43;15.30;99.90
25192;DHT22;13143;50.924;5.320;2023-05-23T10:19:23;15.30;99.90
25192;DHT22;13143;50.924;5.320;2023-05-23T10:21:59;15.30;99.90
25192;DHT22;13143;50.924;5.320;2023-05-23T10:24:25;15.30;99.90
25192;DHT22;13143;50.924;5.320;2023-05-23T10:26:53;15.30;99.90
25192;DHT22;13143;50.924;5.320;2023-05-23T10:29:24;15.30;99.90
25192;DHT22;13143;50.924;5.320;2023-05-23T10:31:51;15.40;99.90
25192;DHT22;13143;50.924;5.320;2023-05-23T10:37:02;15.30;99.90
25192;DHT22;13143;50.924;5.320;2023-05-23T10:42:18;15.30;99.90
25192;DHT22;13143;50.924;5.320;2023-05-23T10:44:47;15.30;99.90
25192;DHT22;13143;50.924;5.320;2023-05-23T10:47:25;15.40;99.90
25192;DHT22;13143;50.924;5.320;2023-05-23T10:49:53;15.40;99.90
25192;DHT22;13143;50.924;5.320;2023-05-23T10:52:21;15.40;99.90
25192;DHT22;13143;50.924;5.320;2023-05-23T10:54:50;15.40;99.90
25192;DHT22;13143;50.924;5.320;2023-05-23T10:57:21;15.40;99.90
25192;DHT22;13143;50.924;5.320;2023-05-23T10:59:50;15.50;99.90
25192;DHT22;13143;50.924;5.320;2023-05-23T11:02:26;15.40;99.90
25192;DHT22;13143;50.924;5.320;2023-05-23T11:07:45;15.50;99.90
25192;DHT22;13143;50.924;5.320;2023-05-23T11:10:12;15.50;99.90
25192;DHT22;13143;50.924;5.320;2023-05-23T11:12:43;15.50;99.90
25192;DHT22;13143;50.924;5.320;2023-05-23T11:15:39;15.50;99.90
25192;DHT22;13143;50.924;5.320;2023-05-23T11:18:06;15.60;99.90
25192;DHT22;13143;50.924;5.320;2023-05-23T11:20:32;15.60;99.90
25192;DHT22;13143;50.924;5.320;2023-05-23T11:23:00;15.60;99.90
25192;DHT22;13143;50.924;5.320;2023-05-23T11:25:43;15.60;99.90
25192;DHT22;13143;50.924;5.320;2023-05-23T11:28:10;15.60;99.90
25192;DHT22;13143;50.924;5.320;2023-05-23T11:30:37;15.60;99.90
25192;DHT22;13143;50.924;5.320;2023-05-23T11:33:14;15.70;99.90
25192;DHT22;13143;50.924;5.320;2023-05-23T11:35:46;15.60;99.90
25192;DHT22;13143;50.924;5.320;2023-05-23T11:38:16;15.70;99.90
25192;DHT22;13143;50.924;5.320;2023-05-23T11:40:44;15.70;99.90
25192;DHT22;13143;50.924;5.320;2023-05-23T11:43:15;15.80;99.90
25192;DHT22;13143;50.924;5.320;2023-05-23T11:45:42;15.80;99.90
25192;DHT22;13143;50.924;5.320;2023-05-23T11:48:13;15.80;99.90
25192;DHT22;13143;50.924;5.320;2023-05-23T11:50:48;15.80;99.90
25192;DHT22;13143;50.924;5.320;2023-05-23T11:53:15;15.80;99.90
25192;DHT22;13143;50.924;5.320;2023-05-23T11:55:54;15.80;99.90
25192;DHT22;13143;50.924;5.320;2023-05-23T11:58:21;15.90;99.90
25192;DHT22;13143;50.924;5.320;2023-05-23T12:00:48;15.90;99.90
25192;DHT22;13143;50.924;5.320;2023-05-23T12:03:14;15.90;99.90
25192;DHT22;13143;50.924;5.320;2023-05-23T12:05:42;15.90;99.90
25192;DHT22;13143;50.924;5.320;2023-05-23T12:08:12;15.90;99.90
25192;DHT22;13143;50.924;5.320;2023-05-23T12:10:57;16.00;99.90
25192;DHT22;13143;50.924;5.320;2023-05-23T12:13:24;16.00;99.90
25192;DHT22;13143;50.924;5.320;2023-05-23T12:15:55;16.00;99.90
25192;DHT22;13143;50.924;5.320;2023-05-23T12:18:21;16.00;99.90
25192;DHT22;13143;50.924;5.320;2023-05-23T12:20:48;16.10;99.90
25192;DHT22;13143;50.924;5.320;2023-05-23T12:23:21;16.10;99.90
25192;DHT22;13143;50.924;5.320;2023-05-23T12:25:51;16.10;99.90
25192;DHT22;13143;50.924;5.320;2023-05-23T12:28:19;16.10;99.90
25192;DHT22;13143;50.924;5.320;2023-05-23T12:30:45;16.20;99.90
25192;DHT22;13143;50.924;5.320;2023-05-23T12:33:11;16.20;99.90
25192;DHT22;13143;50.924;5.320;2023-05-23T12:35:42;16.20;99.90
25192;DHT22;13143;50.924;5.320;2023-05-23T12:38:14;16.20;99.90
25192;DHT22;13143;50.924;5.320;2023-05-23T12:40:41;16.20;99.90
25192;DHT22;13143;50.924;5.320;2023-05-23T12:43:08;16.30;99.90
25192;DHT22;13143;50.924;5.320;2023-05-23T12:45:35;16.30;99.90
25192;DHT22;13143;50.924;5.320;2023-05-23T12:48:03;16.30;99.90
25192;DHT22;13143;50.924;5.320;2023-05-23T12:50:29;16.30;99.90
25192;DHT22;13143;50.924;5.320;2023-05-23T12:52:56;16.40;99.90
25192;DHT22;13143;50.924;5.320;2023-05-23T12:55:22;16.40;99.90
25192;DHT22;13143;50.924;5.320;2023-05-23T12:57:48;16.40;99.90
25192;DHT22;13143;50.924;5.320;2023-05-23T13:00:15;16.40;99.90
25192;DHT22;13143;50.924;5.320;2023-05-23T13:02:41;16.50;99.90
25192;DHT22;13143;50.924;5.320;2023-05-23T13:05:07;16.50;99.90
25192;DHT22;13143;50.924;5.320;2023-05-23T13:07:34;16.60;99.90
25192;DHT22;13143;50.924;5.320;2023-05-23T13:10:01;16.50;99.90
25192;DHT22;13143;50.924;5.320;2023-05-23T13:12:27;16.60;99.90
25192;DHT22;13143;50.924;5.320;2023-05-23T13:14:53;16.60;99.90
25192;DHT22;13143;50.924;5.320;2023-05-23T13:17:19;16.60;99.90
25192;DHT22;13143;50.924;5.320;2023-05-23T13:19:46;16.70;99.90
25192;DHT22;13143;50.924;5.320;2023-05-23T13:22:12;16.70;99.90
25192;DHT22;13143;50.924;5.320;2023-05-23T13:24:39;16.70;99.90
25192;DHT22;13143;50.924;5.320;2023-05-23T13:27:06;16.70;99.90
25192;DHT22;13143;50.924;5.320;2023-05-23T13:29:33;16.80;99.90
25192;DHT22;13143;50.924;5.320;2023-05-23T13:31:59;16.80;99.90
25192;DHT22;13143;50.924;5.320;2023-05-23T13:34:25;16.80;99.90
25192;DHT22;13143;50.924;5.320;2023-05-23T13:36:53;16.80;99.90
25192;DHT22;13143;50.924;5.320;2023-05-23T13:39:20;16.80;99.90
25192;DHT22;13143;50.924;5.320;2023-05-23T13:41:48;16.80;99.90
25192;DHT22;13143;50.924;5.320;2023-05-23T13:44:14;16.80;99.90
25192;DHT22;13143;50.924;5.320;2023-05-23T13:46:42;16.90;99.90
25192;DHT22;13143;50.924;5.320;2023-05-23T13:49:08;16.90;99.90
25192;DHT22;13143;50.924;5.320;2023-05-23T13:51:34;16.90;99.90
25192;DHT22;13143;50.924;5.320;2023-05-23T13:54:03;16.90;99.90
25192;DHT22;13143;50.924;5.320;2023-05-23T13:56:29;16.90;99.90
25192;DHT22;13143;50.924;5.320;2023-05-23T13:58:55;16.90;99.90
25192;DHT22;13143;50.924;5.320;2023-05-23T14:01:21;17.00;99.90
25192;DHT22;13143;50.924;5.320;2023-05-23T14:03:49;17.00;99.90
25192;DHT22;13143;50.924;5.320;2023-05-23T14:06:15;17.00;99.90
25192;DHT22;13143;50.924;5.320;2023-05-23T14:08:41;17.00;99.90
25192;DHT22;13143;50.924;5.320;2023-05-23T14:11:07;17.10;99.90
25192;DHT22;13143;50.924;5.320;2023-05-23T14:13:33;17.10;99.90
25192;DHT22;13143;50.924;5.320;2023-05-23T14:16:00;17.10;99.90
25192;DHT22;13143;50.924;5.320;2023-05-23T14:18:26;17.10;99.90
25192;DHT22;13143;50.924;5.320;2023-05-23T14:20:52;17.10;99.90
25192;DHT22;13143;50.924;5.320;2023-05-23T14:23:18;17.20;99.90
25192;DHT22;13143;50.924;5.320;2023-05-23T14:25:44;17.20;99.90
25192;DHT22;13143;50.924;5.320;2023-05-23T14:28:12;17.20;99.90
25192;DHT22;13143;50.924;5.320;2023-05-23T14:30:38;17.20;99.90
25192;DHT22;13143;50.924;5.320;2023-05-23T14:33:04;17.20;99.90
25192;DHT22;13143;50.924;5.320;2023-05-23T14:35:31;17.20;99.90
25192;DHT22;13143;50.924;5.320;2023-05-23T14:37:57;17.20;99.90
25192;DHT22;13143;50.924;5.320;2023-05-23T14:40:23;17.20;99.90
25192;DHT22;13143;50.924;5.320;2023-05-23T14:42:49;17.30;99.90
25192;DHT22;13143;50.924;5.320;2023-05-23T14:45:15;17.30;99.90
25192;DHT22;13143;50.924;5.320;2023-05-23T14:47:41;17.30;99.90
25192;DHT22;13143;50.924;5.320;2023-05-23T14:50:08;17.30;99.90
25192;DHT22;13143;50.924;5.320;2023-05-23T14:52:34;17.40;99.90
25192;DHT22;13143;50.924;5.320;2023-05-23T14:55:00;17.30;99.90
25192;DHT22;13143;50.924;5.320;2023-05-23T14:57:26;17.40;99.90
25192;DHT22;13143;50.924;5.320;2023-05-23T14:59:52;17.40;99.90
25192;DHT22;13143;50.924;5.320;2023-05-23T15:02:18;17.40;99.90
25192;DHT22;13143;50.924;5.320;2023-05-23T15:04:45;17.40;99.30
25192;DHT22;13143;50.924;5.320;2023-05-23T15:07:11;17.40;97.70
25192;DHT22;13143;50.924;5.320;2023-05-23T15:09:39;17.40;96.40
25192;DHT22;13143;50.924;5.320;2023-05-23T15:12:06;17.40;94.90
25192;DHT22;13143;50.924;5.320;2023-05-23T15:14:34;17.40;96.10
25192;DHT22;13143;50.924;5.320;2023-05-23T15:17:01;17.40;95.70
25192;DHT22;13143;50.924;5.320;2023-05-23T15:19:34;17.40;96.10
25192;DHT22;13143;50.924;5.320;2023-05-23T15:22:01;17.40;96.50
25192;DHT22;13143;50.924;5.320;2023-05-23T15:24:27;17.40;96.50
25192;DHT22;13143;50.924;5.320;2023-05-23T15:26:53;17.40;96.10
25192;DHT22;13143;50.924;5.320;2023-05-23T15:29:19;17.50;96.40
25192;DHT22;13143;50.924;5.320;2023-05-23T15:31:46;17.50;96.30
25192;DHT22;13143;50.924;5.320;2023-05-23T15:34:12;17.50;96.50
25192;DHT22;13143;50.924;5.320;2023-05-23T15:36:39;17.50;96.20
25192;DHT22;13143;50.924;5.320;2023-05-23T15:39:05;17.50;95.40
25192;DHT22;13143;50.924;5.320;2023-05-23T15:41:31;17.40;94.60
25192;DHT22;13143;50.924;5.320;2023-05-23T15:43:58;17.50;94.70
25192;DHT22;13143;50.924;5.320;2023-05-23T15:46:24;17.50;95.50
25192;DHT22;13143;50.924;5.320;2023-05-23T15:48:50;17.50;95.40
25192;DHT22;13143;50.924;5.320;2023-05-23T15:51:16;17.50;95.70
25192;DHT22;13143;50.924;5.320;2023-05-23T15:53:42;17.50;95.50
25192;DHT22;13143;50.924;5.320;2023-05-23T15:56:08;17.50;95.20